Time;durP1;ratioP1;P1;durP2;ratioP2;P2;SDS_P1;SDS_P2;PMS_P1;PMS_P2;Temp;Humidity;BMP_temperature;BMP_pressure;BME280_temperature;BME280_humidity;BME280_pressure;Samples;Min_cycle;Max_cycle;Signal;HPM_P1;HPM_P2
2022/11/02 00:00:16;;;;;;;8.98;1.73;;;15.30;51.00;;;;;;5082611;28;20496;-47
2022/11/02 00:02:43;;;;;;;9.40;1.58;;;15.40;51.10;;;;;;5083326;28;20056;-52
2022/11/02 00:05:12;;;;;;;9.88;2.00;;;15.40;51.00;;;;;;5082230;28;20407;-53
2022/11/02 00:07:40;;;;;;;15.77;2.47;;;15.40;51.10;;;;;;5082689;28;20055;-49
2022/11/02 00:10:09;;;;;;;9.18;1.67;;;15.40;51.10;;;;;;5093498;28;20048;-48
2022/11/02 00:12:36;;;;;;;10.32;2.38;;;15.50;51.10;;;;;;5083978;28;20519;-50
2022/11/02 00:15:05;;;;;;;6.10;1.83;;;15.50;51.00;;;;;;5082379;28;20052;-50
2022/11/02 00:17:34;;;;;;;7.03;1.33;;;15.50;50.90;;;;;;5083654;28;21076;-53
2022/11/02 00:20:02;;;;;;;9.13;1.98;;;15.50;50.90;;;;;;5083487;28;20053;-51
2022/11/02 00:22:30;;;;;;;11.27;2.20;;;15.60;51.00;;;;;;5083147;28;20071;-51
2022/11/02 00:24:58;;;;;;;10.75;1.90;;;15.50;51.00;;;;;;5082068;28;20063;-48
2022/11/02 00:27:25;;;;;;;9.52;1.65;;;15.50;50.90;;;;;;5084217;28;20056;-51
2022/11/02 00:29:53;;;;;;;12.55;2.45;;;15.60;51.00;;;;;;5103801;28;20047;-51
2022/11/02 00:32:20;;;;;;;13.27;3.00;;;15.60;50.90;;;;;;5081975;28;20048;-48
2022/11/02 00:34:49;;;;;;;13.40;2.20;;;15.60;51.00;;;;;;5084145;28;20044;-49
2022/11/02 00:37:16;;;;;;;13.50;2.42;;;15.60;50.90;;;;;;5082366;28;20054;-48
2022/11/02 00:39:43;;;;;;;12.77;2.58;;;15.60;50.90;;;;;;5085435;28;20074;-50
2022/11/02 00:42:11;;;;;;;7.22;1.50;;;15.60;50.90;;;;;;5083990;28;20056;-53
2022/11/02 00:44:38;;;;;;;11.07;1.73;;;15.60;50.90;;;;;;5083799;28;20059;-52
2022/11/02 00:47:05;;;;;;;9.18;1.40;;;15.70;50.90;;;;;;5086240;28;20067;-50
2022/11/02 00:49:32;;;;;;;12.45;1.60;;;15.70;50.80;;;;;;5086743;28;20051;-52
2022/11/02 00:52:01;;;;;;;15.13;2.00;;;15.70;50.80;;;;;;5083742;28;20052;-50
2022/11/02 00:54:28;;;;;;;8.88;2.22;;;15.70;50.90;;;;;;5089161;28;20516;-54
2022/11/02 00:56:55;;;;;;;11.30;1.67;;;15.70;50.80;;;;;;5090249;28;20063;-51
2022/11/02 00:59:23;;;;;;;10.90;2.22;;;15.80;50.80;;;;;;5089812;28;20066;-53
2022/11/02 01:01:50;;;;;;;11.52;1.92;;;15.80;50.80;;;;;;5089648;28;20100;-49
2022/11/02 01:04:17;;;;;;;13.55;1.95;;;15.80;50.80;;;;;;5089980;28;20483;-51
2022/11/02 01:06:45;;;;;;;16.88;2.65;;;15.80;50.80;;;;;;5087565;28;20060;-48
2022/11/02 01:09:15;;;;;;;10.88;1.98;;;15.80;50.80;;;;;;5086106;28;20063;-49
2022/11/02 01:11:42;;;;;;;7.50;1.67;;;15.80;50.80;;;;;;5093380;28;20427;-49
2022/11/02 01:14:10;;;;;;;10.68;1.52;;;15.80;50.80;;;;;;5090517;28;20056;-52
2022/11/02 01:16:39;;;;;;;10.23;1.92;;;15.80;50.80;;;;;;5099008;28;20055;-54
2022/11/02 01:19:06;;;;;;;10.48;1.98;;;15.90;50.90;;;;;;5086323;28;20056;-43
2022/11/02 01:21:34;;;;;;;16.27;2.17;;;15.80;50.90;;;;;;5084967;28;20051;-52
2022/11/02 01:24:01;;;;;;;12.02;2.88;;;15.80;50.80;;;;;;5083854;28;20052;-47
2022/11/02 01:26:29;;;;;;;10.05;1.85;;;15.90;50.90;;;;;;5087113;28;20056;-50
2022/11/02 01:28:57;;;;;;;9.85;1.85;;;15.90;50.80;;;;;;5085334;28;20056;-53
2022/11/02 01:31:24;;;;;;;12.27;2.03;;;15.90;50.90;;;;;;5084520;28;20059;-51
2022/11/02 01:33:51;;;;;;;20.13;2.08;;;15.90;50.90;;;;;;5086292;28;20484;-51
2022/11/02 01:36:20;;;;;;;6.88;1.50;;;15.90;50.80;;;;;;5085371;28;20063;-52
2022/11/02 01:38:48;;;;;;;11.13;2.33;;;15.90;50.90;;;;;;5084515;28;20058;-53
2022/11/02 01:41:17;;;;;;;9.23;2.10;;;15.90;50.90;;;;;;5083391;28;20052;-53
2022/11/02 01:43:54;;;;;;;9.45;2.58;;;16.00;51.00;;;;;;5086374;28;20384;-52
2022/11/02 01:46:24;;;;;;;12.60;2.00;;;16.00;51.00;;;;;;5084921;28;20048;-53
2022/11/02 01:48:57;;;;;;;23.08;3.75;;;15.90;50.90;;;;;;5084691;28;20056;-50
2022/11/02 01:51:27;;;;;;;8.60;1.55;;;16.00;50.90;;;;;;5084574;28;20055;-49
2022/11/02 01:53:57;;;;;;;11.05;1.80;;;16.00;50.90;;;;;;5085184;28;20059;-52
2022/11/02 01:56:29;;;;;;;17.73;2.85;;;16.00;50.90;;;;;;5087621;28;20052;-52
2022/11/02 01:59:01;;;;;;;5.00;1.38;;;16.00;50.90;;;;;;5082810;28;20047;-53
2022/11/02 02:01:29;;;;;;;11.70;2.22;;;16.00;50.80;;;;;;5086643;28;20059;-53
2022/11/02 02:03:57;;;;;;;8.15;1.67;;;16.00;50.90;;;;;;5085000;28;20063;-52
2022/11/02 02:06:25;;;;;;;11.40;2.08;;;16.00;50.90;;;;;;5086674;28;20044;-49
2022/11/02 02:08:54;;;;;;;8.18;1.65;;;16.00;50.90;;;;;;5084221;28;20055;-50
2022/11/02 02:11:26;;;;;;;16.52;2.33;;;16.10;50.90;;;;;;5085633;28;20055;-46
2022/11/02 02:13:55;;;;;;;8.80;2.08;;;16.10;50.90;;;;;;5091682;28;20071;-52
2022/11/02 02:16:45;;;;;;;10.65;2.03;;;16.10;50.80;;;;;;5084910;28;20055;-52
2022/11/02 02:19:25;;;;;;;10.80;2.13;;;16.10;50.80;;;;;;5085001;28;20056;-51
2022/11/02 02:22:04;;;;;;;11.43;2.30;;;16.10;50.80;;;;;;5085867;28;20056;-48
2022/11/02 02:24:46;;;;;;;10.13;2.17;;;16.10;50.80;;;;;;5083169;28;20059;-45
2022/11/02 02:27:18;;;;;;;11.32;2.10;;;16.10;50.80;;;;;;5084166;28;20052;-49
2022/11/02 02:30:01;;;;;;;9.20;1.75;;;16.10;50.80;;;;;;5085573;28;20052;-50
2022/11/02 02:32:39;;;;;;;13.52;2.42;;;16.10;50.80;;;;;;5098132;28;20055;-50
2022/11/02 02:35:19;;;;;;;7.40;1.88;;;16.10;50.80;;;;;;5085964;28;20521;-52
2022/11/02 02:37:53;;;;;;;13.10;2.10;;;16.10;51.00;;;;;;5082917;28;20048;-50
2022/11/02 02:40:25;;;;;;;13.80;1.83;;;16.10;51.00;;;;;;5083622;28;20059;-47
2022/11/02 02:42:56;;;;;;;8.55;2.22;;;16.10;51.00;;;;;;5083619;28;20044;-49
2022/11/02 02:45:29;;;;;;;7.32;1.90;;;16.10;51.00;;;;;;5085460;28;20056;-44
2022/11/02 02:48:06;;;;;;;7.85;1.65;;;16.10;51.00;;;;;;5084179;28;20052;-51
2022/11/02 02:50:37;;;;;;;7.43;1.60;;;16.10;51.00;;;;;;5088303;28;20055;-47
2022/11/02 02:53:07;;;;;;;11.32;2.35;;;16.10;51.00;;;;;;5085132;28;20059;-49
2022/11/02 02:55:40;;;;;;;8.65;1.75;;;16.10;51.00;;;;;;5084043;28;20052;-52
2022/11/02 02:58:14;;;;;;;7.35;2.10;;;16.10;51.00;;;;;;5083189;28;20052;-51
2022/11/02 03:00:44;;;;;;;8.13;1.70;;;16.10;51.10;;;;;;5084630;28;20048;-51
2022/11/02 03:03:15;;;;;;;6.88;2.08;;;16.10;51.00;;;;;;5085105;28;20056;-52
2022/11/02 03:05:43;;;;;;;10.63;1.98;;;16.10;51.00;;;;;;5083412;28;20048;-48
2022/11/02 03:08:13;;;;;;;6.75;2.03;;;16.00;50.90;;;;;;5094193;28;21186;-44
2022/11/02 03:10:47;;;;;;;7.97;1.90;;;16.00;50.90;;;;;;5096085;28;20044;-46
2022/11/02 03:13:31;;;;;;;11.10;2.33;;;16.00;50.90;;;;;;5098866;28;20047;-47
2022/11/02 03:16:04;;;;;;;12.07;2.10;;;16.00;51.00;;;;;;5100618;28;20047;-48
2022/11/02 03:18:39;;;;;;;10.30;2.08;;;16.00;51.00;;;;;;5098424;28;20496;-50
2022/11/02 03:21:20;;;;;;;15.15;2.55;;;16.00;51.00;;;;;;5101859;28;20047;-51
2022/11/02 03:23:54;;;;;;;10.50;2.70;;;15.90;51.00;;;;;;5102916;28;20499;-52
2022/11/02 03:26:28;;;;;;;8.82;1.90;;;15.90;51.00;;;;;;5097562;28;20047;-49
2022/11/02 03:29:03;;;;;;;6.00;1.65;;;15.90;51.00;;;;;;5094462;28;20052;-46
2022/11/02 03:31:38;;;;;;;9.77;1.73;;;15.90;51.10;;;;;;5095977;28;20052;-48
2022/11/02 03:34:16;;;;;;;13.90;2.20;;;15.90;51.10;;;;;;5099840;28;20392;-45
2022/11/02 03:36:49;;;;;;;13.77;2.20;;;15.90;51.20;;;;;;5101121;28;20399;-52
2022/11/02 03:39:20;;;;;;;8.95;1.90;;;15.80;51.20;;;;;;5097840;28;20056;-48
2022/11/02 03:41:51;;;;;;;11.57;2.60;;;15.80;51.20;;;;;;5096883;28;20055;-47
2022/11/02 03:44:22;;;;;;;8.77;2.40;;;15.80;51.70;;;;;;5098332;28;20071;-52
2022/11/02 03:46:57;;;;;;;7.93;2.13;;;15.80;51.20;;;;;;5098170;28;20052;-47
2022/11/02 03:49:26;;;;;;;10.73;1.95;;;15.80;51.70;;;;;;5098502;28;20503;-48
2022/11/02 03:51:55;;;;;;;8.55;2.38;;;15.80;51.30;;;;;;5098560;28;20434;-50
2022/11/02 03:54:30;;;;;;;9.35;2.45;;;15.80;51.30;;;;;;5101797;28;20051;-49
2022/11/02 03:57:02;;;;;;;9.98;1.95;;;15.70;51.20;;;;;;5102661;28;20487;-51
2022/11/02 03:59:31;;;;;;;6.47;1.88;;;15.70;51.30;;;;;;5103285;28;20063;-48
2022/11/02 04:02:01;;;;;;;12.32;2.13;;;15.70;51.20;;;;;;5102652;28;20510;-48
2022/11/02 04:04:28;;;;;;;9.93;2.10;;;15.70;51.20;;;;;;5101101;28;20516;-46
2022/11/02 04:06:56;;;;;;;11.25;2.75;;;15.70;51.20;;;;;;5092498;28;20060;-48
2022/11/02 04:09:23;;;;;;;13.15;2.50;;;15.70;51.20;;;;;;5082310;28;20048;-51
2022/11/02 04:14:38;;;;;;;10.30;2.25;;;15.70;51.20;;;;;;5087799;28;20515;-47
2022/11/02 04:19:54;;;;;;;10.63;1.75;;;15.70;51.20;;;;;;5045737;28;20056;-53
2022/11/02 04:25:18;;;;;;;8.95;2.10;;;15.70;51.20;;;;;;5048293;28;20397;-46
2022/11/02 04:27:48;;;;;;;12.32;2.10;;;15.60;51.10;;;;;;5043084;28;20082;-43
2022/11/02 04:30:17;;;;;;;8.07;2.10;;;15.70;51.20;;;;;;5042823;28;20057;-42
2022/11/02 04:35:33;;;;;;;8.60;2.10;;;15.70;51.20;;;;;;5048653;28;20149;-48
2022/11/02 04:40:46;;;;;;;9.65;2.33;;;15.60;51.20;;;;;;5048572;28;20057;-43
2022/11/02 04:43:14;;;;;;;7.25;1.60;;;15.60;51.20;;;;;;5043406;28;20053;-52
2022/11/02 04:45:41;;;;;;;10.43;2.10;;;15.60;51.20;;;;;;5043555;28;20056;-46
2022/11/02 04:48:10;;;;;;;9.02;1.92;;;15.60;51.20;;;;;;5043007;28;20060;-52
2022/11/02 04:50:37;;;;;;;12.45;2.45;;;15.60;51.30;;;;;;5043096;28;20419;-49
2022/11/02 04:53:06;;;;;;;8.82;2.05;;;15.60;51.30;;;;;;5042614;28;20059;-50
2022/11/02 04:55:34;;;;;;;12.82;2.50;;;15.50;51.30;;;;;;5042693;28;20539;-44
2022/11/02 04:58:01;;;;;;;11.20;2.10;;;15.50;51.30;;;;;;5041423;28;20416;-46
2022/11/02 05:00:29;;;;;;;10.02;1.83;;;15.50;51.30;;;;;;5042893;28;20059;-48
2022/11/02 05:02:56;;;;;;;7.60;1.92;;;15.50;51.30;;;;;;5042157;28;20496;-46
2022/11/02 05:05:25;;;;;;;9.32;2.17;;;15.50;51.40;;;;;;5041429;28;20053;-46
2022/11/02 05:07:52;;;;;;;8.57;1.83;;;15.50;51.40;;;;;;5041428;28;20053;-50
2022/11/02 05:10:20;;;;;;;8.40;2.10;;;15.50;51.50;;;;;;5039894;28;20515;-49
2022/11/02 05:12:47;;;;;;;11.25;2.42;;;15.50;51.50;;;;;;5040933;28;20065;-52
2022/11/02 05:15:14;;;;;;;6.95;1.73;;;15.50;51.50;;;;;;5040059;28;20057;-52
2022/11/02 05:17:41;;;;;;;13.48;2.40;;;15.50;51.60;;;;;;5039450;28;20049;-48
2022/11/02 05:20:09;;;;;;;7.07;1.95;;;15.40;51.50;;;;;;5042329;28;20067;-48
2022/11/02 05:22:41;;;;;;;9.32;2.35;;;15.40;51.50;;;;;;5041954;28;20075;-49
2022/11/02 05:25:09;;;;;;;10.90;2.80;;;15.40;51.60;;;;;;5042414;28;20057;-51
2022/11/02 05:27:36;;;;;;;6.82;1.80;;;15.40;51.60;;;;;;5041989;28;20412;-44
2022/11/02 05:30:05;;;;;;;8.73;1.88;;;15.40;51.60;;;;;;5041412;28;20060;-45
2022/11/02 05:32:32;;;;;;;10.02;2.58;;;15.40;51.60;;;;;;5042276;28;20531;-50
2022/11/02 05:34:59;;;;;;;15.07;2.42;;;15.40;51.70;;;;;;5042037;28;20053;-47
2022/11/02 05:37:26;;;;;;;9.85;2.20;;;15.40;51.70;;;;;;5039825;28;20531;-45
2022/11/02 05:39:55;;;;;;;9.05;2.03;;;15.40;51.70;;;;;;5042995;28;20057;-51
2022/11/02 05:42:22;;;;;;;9.73;2.13;;;15.30;51.70;;;;;;5045733;28;20053;-46
2022/11/02 05:44:49;;;;;;;10.45;2.28;;;15.30;51.80;;;;;;5043956;28;20053;-48
2022/11/02 05:47:17;;;;;;;8.52;2.13;;;15.30;51.80;;;;;;5044983;28;20053;-47
2022/11/02 05:49:44;;;;;;;16.85;2.25;;;15.30;51.90;;;;;;5046255;28;20064;-50
2022/11/02 05:52:11;;;;;;;10.88;2.03;;;15.30;51.80;;;;;;5046011;28;20064;-45
2022/11/02 05:54:38;;;;;;;10.55;2.10;;;15.30;51.80;;;;;;5044055;28;20063;-50
2022/11/02 05:57:07;;;;;;;8.10;2.30;;;15.30;51.80;;;;;;5043472;28;20489;-47
2022/11/02 05:59:34;;;;;;;10.32;1.70;;;15.20;51.80;;;;;;5045499;28;20061;-50
2022/11/02 06:02:02;;;;;;;8.75;2.10;;;15.20;51.90;;;;;;5045495;28;20060;-44
2022/11/02 06:04:29;;;;;;;9.07;2.30;;;15.20;51.90;;;;;;5044473;28;20053;-49
2022/11/02 06:06:56;;;;;;;10.93;2.20;;;15.20;51.80;;;;;;5045522;28;20057;-48
2022/11/02 06:09:24;;;;;;;8.48;1.75;;;15.20;51.90;;;;;;5063750;28;20060;-43
2022/11/02 06:11:51;;;;;;;8.65;2.20;;;15.20;51.90;;;;;;5059134;28;21106;-44
2022/11/02 06:14:19;;;;;;;14.60;1.65;;;15.20;52.00;;;;;;5065845;28;20056;-45
2022/11/02 06:16:47;;;;;;;11.88;2.47;;;15.20;52.00;;;;;;5066196;28;20055;-50
2022/11/02 06:19:14;;;;;;;11.95;2.38;;;15.20;52.00;;;;;;5057346;28;20500;-45
2022/11/02 06:21:41;;;;;;;8.70;1.80;;;15.20;52.00;;;;;;5064219;28;20059;-51
2022/11/02 06:24:08;;;;;;;13.63;2.17;;;15.20;52.00;;;;;;5062438;28;20405;-50
2022/11/02 06:26:35;;;;;;;6.05;1.73;;;15.20;52.00;;;;;;5065229;28;20056;-43
2022/11/02 06:29:03;;;;;;;10.55;2.20;;;15.20;52.00;;;;;;5064115;28;20071;-50
2022/11/02 06:31:31;;;;;;;12.52;2.10;;;15.20;52.00;;;;;;5057664;28;20056;-51
2022/11/02 06:33:58;;;;;;;10.75;2.15;;;15.10;52.00;;;;;;5065336;28;20416;-47
2022/11/02 06:36:26;;;;;;;9.25;2.30;;;15.10;52.00;;;;;;5059936;28;20057;-49
2022/11/02 06:38:53;;;;;;;10.02;1.95;;;15.10;52.10;;;;;;5064882;28;20075;-49
2022/11/02 06:41:20;;;;;;;13.32;2.67;;;15.10;52.10;;;;;;5060341;28;20072;-41
2022/11/02 06:43:48;;;;;;;9.30;2.85;;;15.10;52.10;;;;;;5058569;28;20512;-51
2022/11/02 06:46:15;;;;;;;12.27;2.28;;;15.10;52.20;;;;;;5064789;28;20056;-52
2022/11/02 06:48:46;;;;;;;9.70;2.00;;;15.10;52.20;;;;;;5062514;28;20048;-49
2022/11/02 06:51:14;;;;;;;7.20;1.85;;;15.10;52.30;;;;;;5058979;28;20052;-46
2022/11/02 06:53:41;;;;;;;7.57;2.03;;;15.10;52.30;;;;;;5056428;28;20066;-49
2022/11/02 06:56:11;;;;;;;8.55;1.90;;;15.10;52.30;;;;;;5061902;28;20412;-49
2022/11/02 06:58:38;;;;;;;13.07;1.92;;;15.10;52.30;;;;;;5060752;28;20045;-47
2022/11/02 07:01:08;;;;;;;14.10;2.28;;;15.10;52.30;;;;;;5058973;28;20056;-51
2022/11/02 07:03:35;;;;;;;16.08;3.38;;;15.10;52.40;;;;;;5051791;28;20056;-45
2022/11/02 07:06:04;;;;;;;13.07;2.30;;;15.10;52.40;;;;;;5058703;28;20057;-44
2022/11/02 07:08:32;;;;;;;10.32;2.00;;;15.10;52.40;;;;;;5063015;28;20057;-50
2022/11/02 07:10:59;;;;;;;8.57;1.85;;;15.10;52.30;;;;;;5063494;28;20071;-48
2022/11/02 07:13:26;;;;;;;11.55;1.90;;;15.10;52.30;;;;;;5063470;28;20748;-47
2022/11/02 07:15:54;;;;;;;10.90;1.73;;;15.10;52.30;;;;;;5061947;28;20063;-47
2022/11/02 07:18:22;;;;;;;5.82;1.50;;;15.10;52.30;;;;;;5062893;28;20071;-51
2022/11/02 07:20:50;;;;;;;16.83;2.45;;;15.10;52.30;;;;;;5066356;28;20055;-46
2022/11/02 07:23:22;;;;;;;6.70;1.80;;;15.10;52.30;;;;;;5065679;28;20381;-50
2022/11/02 07:25:49;;;;;;;8.00;2.58;;;15.20;52.40;;;;;;5065675;28;20057;-46
2022/11/02 07:28:16;;;;;;;7.55;1.90;;;15.20;52.40;;;;;;5066648;28;20048;-45
2022/11/02 07:30:44;;;;;;;8.57;2.10;;;15.20;52.30;;;;;;5061261;28;20048;-46
2022/11/02 07:33:12;;;;;;;6.72;1.75;;;15.20;52.30;;;;;;5056896;28;20266;-52
2022/11/02 07:35:40;;;;;;;14.38;2.55;;;15.20;52.90;;;;;;5074498;28;20055;-51
2022/11/02 07:38:07;;;;;;;10.35;1.80;;;15.20;52.40;;;;;;5064115;28;20052;-51
2022/11/02 07:40:37;;;;;;;8.85;2.08;;;15.20;52.30;;;;;;5056363;28;20060;-52
2022/11/02 07:43:05;;;;;;;9.20;2.03;;;15.20;52.30;;;;;;5057650;28;20063;-51
2022/11/02 07:45:33;;;;;;;12.02;1.70;;;15.30;52.30;;;;;;5067216;28;20493;-51
2022/11/02 07:48:00;;;;;;;8.55;2.08;;;15.30;52.30;;;;;;5065472;28;20404;-44
2022/11/02 07:50:27;;;;;;;8.18;2.15;;;15.30;52.20;;;;;;5058235;28;20050;-44
2022/11/02 07:52:57;;;;;;;7.07;1.58;;;15.30;52.20;;;;;;5059411;28;20064;-47
2022/11/02 07:55:25;;;;;;;8.35;1.70;;;15.30;52.20;;;;;;5067589;28;20052;-50
2022/11/02 07:57:55;;;;;;;12.52;2.08;;;15.30;52.60;;;;;;5072815;28;20056;-50
2022/11/02 08:00:22;;;;;;;11.95;2.65;;;15.30;52.10;;;;;;5066355;28;20055;-46
2022/11/02 08:02:53;;;;;;;11.43;1.95;;;15.40;52.20;;;;;;5068847;28;20059;-50
2022/11/02 08:05:20;;;;;;;11.30;2.38;;;15.40;52.70;;;;;;5068068;28;20520;-46
2022/11/02 08:07:48;;;;;;;17.58;2.20;;;15.40;52.20;;;;;;5061519;28;20052;-51
2022/11/02 08:10:15;;;;;;;8.07;2.20;;;15.40;52.10;;;;;;5059692;28;20519;-48
2022/11/02 08:12:43;;;;;;;10.65;1.95;;;15.40;52.10;;;;;;5063105;28;20056;-45
2022/11/02 08:15:11;;;;;;;13.45;2.13;;;15.40;52.10;;;;;;5062820;28;20409;-48
2022/11/02 08:17:39;;;;;;;17.80;2.08;;;15.40;52.00;;;;;;5063967;28;20075;-48
2022/11/02 08:20:08;;;;;;;8.13;1.90;;;15.40;52.00;;;;;;5063226;28;20051;-49
2022/11/02 08:22:37;;;;;;;8.18;1.80;;;15.40;51.90;;;;;;5062943;28;20052;-44
2022/11/02 08:25:06;;;;;;;9.68;2.33;;;15.50;51.90;;;;;;5063496;28;20060;-44
2022/11/02 08:27:34;;;;;;;7.47;2.08;;;15.50;51.80;;;;;;5063345;28;20056;-48
2022/11/02 08:30:01;;;;;;;7.53;1.42;;;15.60;51.70;;;;;;5057531;28;20059;-45
2022/11/02 08:32:29;;;;;;;7.90;1.70;;;15.50;51.60;;;;;;5058616;28;20480;-48
2022/11/02 08:34:57;;;;;;;10.38;1.77;;;15.60;51.50;;;;;;5059441;28;20067;-43
2022/11/02 08:37:24;;;;;;;6.82;1.50;;;15.60;51.50;;;;;;5056137;28;20407;-47
2022/11/02 08:39:51;;;;;;;7.05;1.70;;;15.60;51.40;;;;;;5058316;28;20103;-46
2022/11/02 08:42:18;;;;;;;11.65;2.15;;;15.60;51.40;;;;;;5055426;28;20102;-46
2022/11/02 08:44:46;;;;;;;7.35;1.70;;;15.60;51.40;;;;;;5054381;28;20048;-43
2022/11/02 08:47:14;;;;;;;8.55;2.15;;;15.70;51.50;;;;;;5048734;28;20059;-48
2022/11/02 08:49:43;;;;;;;17.58;2.05;;;15.70;51.40;;;;;;5061922;28;20059;-46
2022/11/02 08:52:10;;;;;;;14.32;2.83;;;15.70;51.10;;;;;;5057237;28;20059;-48
2022/11/02 08:54:37;;;;;;;7.55;2.65;;;15.80;51.00;;;;;;5060224;28;20048;-50
2022/11/02 08:57:05;;;;;;;11.13;1.75;;;15.80;51.00;;;;;;5055340;28;20392;-51
2022/11/02 08:59:32;;;;;;;9.77;1.85;;;15.80;51.00;;;;;;5049442;28;20057;-46
2022/11/02 09:01:59;;;;;;;9.55;1.50;;;15.90;50.90;;;;;;5052125;28;20053;-52
2022/11/02 09:04:26;;;;;;;10.18;1.75;;;15.90;50.90;;;;;;5055678;28;20396;-50
2022/11/02 09:06:55;;;;;;;10.73;2.30;;;15.90;50.70;;;;;;5060208;28;20063;-49
2022/11/02 09:09:22;;;;;;;13.93;2.28;;;15.90;50.60;;;;;;5053856;28;20519;-43
2022/11/02 09:11:50;;;;;;;10.63;2.08;;;16.00;50.60;;;;;;5054803;28;20055;-44
2022/11/02 09:14:17;;;;;;;8.73;1.73;;;16.00;50.60;;;;;;5064009;28;20059;-51
2022/11/02 09:16:44;;;;;;;10.48;1.85;;;16.00;50.60;;;;;;5058299;28;20405;-48
2022/11/02 09:19:11;;;;;;;12.00;1.85;;;16.10;50.50;;;;;;5044374;28;20052;-46
2022/11/02 09:21:39;;;;;;;9.07;1.60;;;16.10;50.40;;;;;;5054179;28;20634;-46
2022/11/02 09:24:08;;;;;;;10.18;1.92;;;16.10;50.20;;;;;;5056563;28;20057;-47
2022/11/02 09:26:35;;;;;;;11.35;1.92;;;16.20;50.20;;;;;;5054814;28;20056;-48
2022/11/02 09:29:03;;;;;;;15.55;2.33;;;16.20;50.10;;;;;;5063122;28;20059;-49
2022/11/02 09:31:30;;;;;;;9.75;1.58;;;16.20;49.90;;;;;;5052108;28;20059;-50
2022/11/02 09:33:57;;;;;;;9.20;1.92;;;16.20;49.70;;;;;;5054013;28;21754;-50
2022/11/02 09:36:25;;;;;;;14.20;1.80;;;16.30;49.80;;;;;;5063476;28;20067;-44
2022/11/02 09:38:52;;;;;;;7.40;1.70;;;16.30;49.90;;;;;;5063854;28;20044;-51
2022/11/02 09:41:26;;;;;;;8.50;1.50;;;16.30;49.60;;;;;;5062750;28;20076;-54
2022/11/02 09:44:01;;;;;;;11.32;2.53;;;16.40;49.70;;;;;;5060186;28;20059;-46
2022/11/02 09:46:32;;;;;;;9.98;2.08;;;16.40;49.40;;;;;;5063879;28;20061;-49
2022/11/02 09:49:03;;;;;;;11.88;1.98;;;16.40;49.20;;;;;;5060234;28;20045;-47
2022/11/02 09:51:35;;;;;;;9.15;1.70;;;16.50;49.30;;;;;;5058496;28;20057;-45
2022/11/02 09:54:08;;;;;;;15.82;2.17;;;16.50;49.10;;;;;;5061168;28;20412;-41
2022/11/02 09:56:37;;;;;;;8.02;1.67;;;16.50;48.90;;;;;;5060746;28;20079;-44
2022/11/02 09:59:12;;;;;;;6.95;1.35;;;16.60;48.70;;;;;;5059542;28;20511;-46
2022/11/02 10:01:54;;;;;;;16.45;2.85;;;16.60;48.60;;;;;;5059428;28;20052;-47
2022/11/02 10:05:06;;;;;;;7.68;1.65;;;16.60;48.40;;;;;;5059711;28;20492;-45
2022/11/02 10:07:53;;;;;;;13.63;2.70;;;16.60;48.10;;;;;;5054463;28;20061;-52
2022/11/02 10:10:27;;;;;;;9.48;1.95;;;16.60;47.90;;;;;;5053567;28;20056;-49
2022/11/02 10:13:03;;;;;;;10.85;1.75;;;16.70;48.10;;;;;;5061536;28;20052;-46
2022/11/02 10:15:38;;;;;;;13.43;2.40;;;16.70;48.10;;;;;;5057898;28;20056;-46
2022/11/02 10:18:09;;;;;;;11.50;1.77;;;16.70;48.00;;;;;;5057247;28;20064;-51
2022/11/02 10:20:40;;;;;;;11.57;2.17;;;16.70;48.00;;;;;;5056380;28;20057;-43
2022/11/02 10:23:12;;;;;;;10.05;1.73;;;16.80;48.00;;;;;;5063794;28;20052;-50
2022/11/02 10:25:39;;;;;;;8.90;1.95;;;16.80;47.70;;;;;;5058684;28;20773;-52
2022/11/02 10:28:15;;;;;;;16.63;2.50;;;16.80;47.60;;;;;;5058768;28;20052;-45
2022/11/02 10:30:44;;;;;;;6.32;1.20;;;16.80;47.00;;;;;;5061973;28;20052;-46
2022/11/02 10:33:15;;;;;;;9.13;2.03;;;16.80;47.10;;;;;;5063207;28;20056;-45
2022/11/02 10:35:52;;;;;;;13.02;1.90;;;16.90;47.40;;;;;;5054867;28;20542;-52
2022/11/02 10:38:30;;;;;;;12.93;1.83;;;16.90;47.20;;;;;;5065663;28;20052;-45
2022/11/02 10:41:17;;;;;;;8.55;1.65;;;16.90;46.80;;;;;;5057980;28;20057;-52
2022/11/02 10:44:07;;;;;;;6.80;1.77;;;16.90;47.10;;;;;;5057292;28;20058;-46
2022/11/02 10:46:53;;;;;;;9.25;1.90;;;17.00;46.60;;;;;;5060738;28;20057;-51
2022/11/02 10:49:43;;;;;;;10.73;1.58;;;17.00;46.80;;;;;;5055965;28;20037;-50
2022/11/02 10:52:14;;;;;;;9.63;1.60;;;17.00;46.20;;;;;;5066244;28;20057;-50
2022/11/02 10:54:41;;;;;;;10.30;2.17;;;17.00;46.30;;;;;;5062348;28;20048;-52
2022/11/02 10:57:12;;;;;;;9.57;2.00;;;17.10;46.60;;;;;;5065444;28;20063;-44
2022/11/02 10:59:41;;;;;;;10.50;2.53;;;17.10;46.80;;;;;;5059792;28;20053;-44
2022/11/02 11:02:13;;;;;;;14.45;1.80;;;17.20;46.50;;;;;;5061121;28;20630;-44
2022/11/02 11:04:41;;;;;;;8.68;1.40;;;17.10;45.90;;;;;;5056237;28;20381;-48
2022/11/02 11:07:14;;;;;;;9.93;1.48;;;17.20;45.80;;;;;;5060040;28;20064;-48
2022/11/02 11:09:48;;;;;;;9.05;1.55;;;17.20;45.30;;;;;;5059741;28;20052;-46
2022/11/02 11:12:21;;;;;;;8.07;1.38;;;17.20;45.20;;;;;;5046961;28;20048;-48
2022/11/02 11:14:52;;;;;;;3.72;1.25;;;17.20;45.10;;;;;;5055625;28;20045;-47
2022/11/02 11:17:24;;;;;;;11.20;1.83;;;17.10;45.10;;;;;;5059907;28;20064;-55
2022/11/02 11:19:53;;;;;;;10.73;1.73;;;17.10;44.30;;;;;;5062033;28;21397;-53
2022/11/02 11:22:26;;;;;;;8.88;2.10;;;17.10;44.70;;;;;;5060709;28;20071;-52
2022/11/02 11:24:54;;;;;;;7.63;2.10;;;17.10;44.90;;;;;;5059284;28;20514;-50
2022/11/02 11:27:22;;;;;;;13.32;2.53;;;17.10;45.30;;;;;;5062184;28;20507;-52
2022/11/02 11:29:53;;;;;;;10.25;1.70;;;17.10;45.50;;;;;;5061605;28;20048;-46
2022/11/02 11:32:24;;;;;;;8.00;1.63;;;17.20;45.60;;;;;;5055502;28;20366;-57
2022/11/02 11:34:56;;;;;;;5.10;1.40;;;17.20;45.30;;;;;;5052833;28;20056;-53
2022/11/02 11:37:26;;;;;;;8.52;2.10;;;17.20;45.10;;;;;;5051415;28;20059;-56
2022/11/02 11:39:57;;;;;;;8.60;1.38;;;17.20;45.30;;;;;;5050034;28;20053;-53
2022/11/02 11:42:28;;;;;;;12.68;1.70;;;17.30;45.60;;;;;;5056175;28;20063;-54
2022/11/02 11:45:01;;;;;;;13.38;2.45;;;17.30;45.80;;;;;;5053095;28;20052;-48
2022/11/02 11:47:32;;;;;;;5.95;1.50;;;17.40;46.00;;;;;;5047982;28;20059;-45
2022/11/02 11:50:03;;;;;;;11.25;2.22;;;17.40;45.80;;;;;;5052761;28;20053;-47
2022/11/02 11:52:32;;;;;;;8.05;1.08;;;17.40;45.50;;;;;;5048236;28;20059;-52
2022/11/02 11:55:01;;;;;;;11.63;1.88;;;17.50;45.60;;;;;;5055924;28;20082;-53
2022/11/02 11:57:30;;;;;;;7.20;1.35;;;17.50;45.80;;;;;;5056870;28;20059;-56
2022/11/02 12:00:03;;;;;;;10.50;1.67;;;17.50;46.10;;;;;;5051090;28;20072;-50
2022/11/02 12:02:32;;;;;;;8.18;1.58;;;17.60;45.70;;;;;;5057045;28;20052;-53
2022/11/02 12:05:12;;;;;;;6.25;1.50;;;17.70;45.50;;;;;;5059698;28;20056;-55
2022/11/02 12:07:59;;;;;;;7.15;1.67;;;17.70;45.30;;;;;;5060968;28;20057;-52
2022/11/02 12:10:51;;;;;;;16.17;1.60;;;17.80;45.20;;;;;;5069356;28;20063;-53
2022/11/02 12:13:38;;;;;;;7.38;1.67;;;17.80;45.10;;;;;;5059915;28;20052;-52
2022/11/02 12:16:19;;;;;;;8.70;1.80;;;17.90;45.30;;;;;;5063851;28;20512;-53
2022/11/02 12:19:03;;;;;;;11.07;1.90;;;17.80;45.00;;;;;;5070898;28;20044;-52
2022/11/02 12:21:43;;;;;;;7.53;1.35;;;17.90;45.10;;;;;;5068609;28;20063;-56
2022/11/02 12:24:38;;;;;;;10.95;1.83;;;17.90;45.30;;;;;;5074532;28;20499;-53
2022/11/02 12:27:19;;;;;;;10.48;2.38;;;18.00;45.00;;;;;;5077966;28;20063;-50
2022/11/02 12:30:04;;;;;;;7.57;1.40;;;18.00;45.10;;;;;;5061437;28;20410;-53
2022/11/02 12:32:41;;;;;;;;;;;18.00;45.00;;;;;;5067908;28;20059;-56
2022/11/02 12:35:24;;;;;;;8.68;1.73;;;18.10;45.40;;;;;;5061636;28;19931;-48
2022/11/02 12:38:06;;;;;;;8.55;2.08;;;18.10;45.00;;;;;;5066683;28;20056;-56
2022/11/02 12:40:47;;;;;;;9.15;2.50;;;18.10;45.00;;;;;;5062804;28;20057;-55
2022/11/02 12:43:30;;;;;;;11.15;1.50;;;18.20;45.00;;;;;;5068236;28;20064;-55
2022/11/02 12:46:04;;;;;;;12.55;2.38;;;18.20;45.10;;;;;;5071341;28;20353;-47
2022/11/02 12:48:42;;;;;;;10.17;2.13;;;18.20;45.00;;;;;;5073735;28;20063;-49
2022/11/02 12:51:14;;;;;;;9.38;1.60;;;18.20;44.70;;;;;;5065943;28;20059;-52
2022/11/02 12:53:47;;;;;;;7.65;1.70;;;18.20;44.60;;;;;;5081511;28;20578;-53
2022/11/02 12:56:20;;;;;;;10.85;1.92;;;18.30;44.30;;;;;;5076825;28;20060;-56
2022/11/02 12:58:48;;;;;;;13.10;1.70;;;18.30;44.10;;;;;;5076539;28;20060;-55
2022/11/02 13:01:23;;;;;;;8.60;2.10;;;18.30;44.30;;;;;;5057485;28;20059;-50
2022/11/02 13:03:56;;;;;;;;;;;18.40;44.30;;;;;;5057818;28;21159;-55
2022/11/02 13:06:29;;;;;;;15.73;2.30;;;18.40;44.70;;;;;;5058335;28;19920;-55
2022/11/02 13:09:01;;;;;;;6.85;1.60;;;18.40;44.30;;;;;;5056456;28;20045;-53
2022/11/02 13:11:32;;;;;;;10.48;1.88;;;18.50;44.40;;;;;;5045644;28;20396;-54
2022/11/02 13:14:02;;;;;;;8.57;1.77;;;18.50;44.40;;;;;;5056654;28;20404;-55